Hartstown, Pennsylvania
Current Conditions -  °F | °C
As of 12:28 PM on Wednesday 26 Nov 2014 (Local Time) from KGKJ Reporting Station
Light Snow Light Snow  
Wind Chill: 26°   Ceiling: 2300
Heat Index: 31°   Visibility: 1mi
Dew Point: 28°   Wind: 5mph
Humidity: 89%   Direction: 70°ENE
Pressure: 30.04"   Gusts: NA
Location:  41.55°N, 80.38°W
Report Text: KGKJ 261728Z AUTO 07004KT 1SM -SN BR SCT017 OVC023 M01/M02 A3004 RMK AO2 P0000 T10061022 TSNO
Loading
Personal Weather Stations






























Interactive Weather Map New forecast layout! Learn more

10-Day Weather Forecast

Advertisements
Track Severe Weather on mobile